sensor_id;sensor_type;location;lat;lon;timestamp;P1;durP1;ratioP1;P2;durP2;ratioP2
61741;SDS011;47650;49.848;9.620;2024-01-25T00:01:15;27.45;;;6.30;;
61741;SDS011;47650;49.848;9.620;2024-01-25T00:03:41;25.42;;;4.50;;
61741;SDS011;47650;49.848;9.620;2024-01-25T00:06:06;21.10;;;4.85;;
61741;SDS011;47650;49.848;9.620;2024-01-25T00:08:32;30.10;;;5.57;;
61741;SDS011;47650;49.848;9.620;2024-01-25T00:10:59;24.15;;;5.28;;
61741;SDS011;47650;49.848;9.620;2024-01-25T00:13:25;26.25;;;5.30;;
61741;SDS011;47650;49.848;9.620;2024-01-25T00:15:51;24.08;;;4.60;;
61741;SDS011;47650;49.848;9.620;2024-01-25T00:18:16;19.92;;;4.35;;
61741;SDS011;47650;49.848;9.620;2024-01-25T00:20:44;31.40;;;5.97;;
61741;SDS011;47650;49.848;9.620;2024-01-25T00:23:11;23.65;;;5.20;;
61741;SDS011;47650;49.848;9.620;2024-01-25T00:25:36;26.20;;;5.50;;
61741;SDS011;47650;49.848;9.620;2024-01-25T00:28:02;28.52;;;5.32;;
61741;SDS011;47650;49.848;9.620;2024-01-25T00:30:30;19.98;;;4.20;;
61741;SDS011;47650;49.848;9.620;2024-01-25T00:32:57;23.60;;;5.00;;
61741;SDS011;47650;49.848;9.620;2024-01-25T00:35:30;26.10;;;4.78;;
61741;SDS011;47650;49.848;9.620;2024-01-25T00:37:56;24.58;;;5.18;;
61741;SDS011;47650;49.848;9.620;2024-01-25T00:40:21;17.85;;;4.70;;
61741;SDS011;47650;49.848;9.620;2024-01-25T00:42:48;22.90;;;4.38;;
61741;SDS011;47650;49.848;9.620;2024-01-25T00:45:19;16.25;;;3.22;;
61741;SDS011;47650;49.848;9.620;2024-01-25T00:47:47;22.42;;;4.55;;
61741;SDS011;47650;49.848;9.620;2024-01-25T00:50:14;14.07;;;3.67;;
61741;SDS011;47650;49.848;9.620;2024-01-25T00:52:42;11.35;;;3.45;;
61741;SDS011;47650;49.848;9.620;2024-01-25T00:55:08;21.10;;;4.30;;
61741;SDS011;47650;49.848;9.620;2024-01-25T00:57:35;23.35;;;4.20;;
61741;SDS011;47650;49.848;9.620;2024-01-25T01:00:00;18.13;;;4.47;;
61741;SDS011;47650;49.848;9.620;2024-01-25T01:02:29;19.23;;;4.00;;
61741;SDS011;47650;49.848;9.620;2024-01-25T01:04:58;19.90;;;4.10;;
61741;SDS011;47650;49.848;9.620;2024-01-25T01:07:25;15.30;;;4.20;;
61741;SDS011;47650;49.848;9.620;2024-01-25T01:09:53;18.52;;;3.80;;
61741;SDS011;47650;49.848;9.620;2024-01-25T01:12:18;21.33;;;4.68;;
61741;SDS011;47650;49.848;9.620;2024-01-25T01:14:43;15.02;;;3.85;;
61741;SDS011;47650;49.848;9.620;2024-01-25T01:17:09;26.00;;;5.32;;
61741;SDS011;47650;49.848;9.620;2024-01-25T01:19:34;20.55;;;4.63;;
61741;SDS011;47650;49.848;9.620;2024-01-25T01:22:01;17.80;;;4.22;;
61741;SDS011;47650;49.848;9.620;2024-01-25T01:24:27;25.20;;;6.10;;
61741;SDS011;47650;49.848;9.620;2024-01-25T01:26:52;19.08;;;5.22;;
61741;SDS011;47650;49.848;9.620;2024-01-25T01:29:19;18.67;;;3.90;;
61741;SDS011;47650;49.848;9.620;2024-01-25T01:31:44;23.10;;;3.80;;
61741;SDS011;47650;49.848;9.620;2024-01-25T01:34:10;21.65;;;4.65;;
61741;SDS011;47650;49.848;9.620;2024-01-25T01:36:38;17.38;;;3.67;;
61741;SDS011;47650;49.848;9.620;2024-01-25T01:39:04;19.52;;;4.85;;
61741;SDS011;47650;49.848;9.620;2024-01-25T01:41:30;19.27;;;4.80;;
61741;SDS011;47650;49.848;9.620;2024-01-25T01:43:56;29.08;;;4.97;;
61741;SDS011;47650;49.848;9.620;2024-01-25T01:46:34;19.42;;;4.07;;
61741;SDS011;47650;49.848;9.620;2024-01-25T01:49:03;23.38;;;6.30;;
61741;SDS011;47650;49.848;9.620;2024-01-25T01:53:58;21.17;;;3.95;;
61741;SDS011;47650;49.848;9.620;2024-01-25T01:56:25;20.50;;;4.40;;
61741;SDS011;47650;49.848;9.620;2024-01-25T01:58:54;17.27;;;4.68;;
61741;SDS011;47650;49.848;9.620;2024-01-25T02:01:23;22.73;;;4.13;;
61741;SDS011;47650;49.848;9.620;2024-01-25T02:03:49;21.50;;;3.63;;
61741;SDS011;47650;49.848;9.620;2024-01-25T02:06:15;24.10;;;5.70;;
61741;SDS011;47650;49.848;9.620;2024-01-25T02:08:40;27.00;;;5.82;;
61741;SDS011;47650;49.848;9.620;2024-01-25T02:11:05;18.80;;;3.97;;
61741;SDS011;47650;49.848;9.620;2024-01-25T02:13:34;23.58;;;5.50;;
61741;SDS011;47650;49.848;9.620;2024-01-25T02:16:00;21.80;;;4.40;;
61741;SDS011;47650;49.848;9.620;2024-01-25T02:18:27;22.98;;;4.20;;
61741;SDS011;47650;49.848;9.620;2024-01-25T02:20:53;19.63;;;4.57;;
61741;SDS011;47650;49.848;9.620;2024-01-25T02:23:19;24.08;;;5.28;;
61741;SDS011;47650;49.848;9.620;2024-01-25T02:25:44;19.98;;;4.47;;
61741;SDS011;47650;49.848;9.620;2024-01-25T02:28:11;29.75;;;5.45;;
61741;SDS011;47650;49.848;9.620;2024-01-25T02:30:37;21.90;;;4.50;;
61741;SDS011;47650;49.848;9.620;2024-01-25T02:33:02;22.88;;;5.07;;
61741;SDS011;47650;49.848;9.620;2024-01-25T02:35:30;23.98;;;5.18;;
61741;SDS011;47650;49.848;9.620;2024-01-25T02:37:55;19.05;;;5.00;;
61741;SDS011;47650;49.848;9.620;2024-01-25T02:40:21;27.77;;;4.95;;
61741;SDS011;47650;49.848;9.620;2024-01-25T02:42:49;26.52;;;5.25;;
61741;SDS011;47650;49.848;9.620;2024-01-25T02:45:17;25.13;;;5.57;;
61741;SDS011;47650;49.848;9.620;2024-01-25T02:47:42;22.27;;;5.28;;
61741;SDS011;47650;49.848;9.620;2024-01-25T02:50:09;24.58;;;4.88;;
61741;SDS011;47650;49.848;9.620;2024-01-25T02:52:34;24.70;;;5.85;;
61741;SDS011;47650;49.848;9.620;2024-01-25T02:55:00;20.67;;;5.25;;
61741;SDS011;47650;49.848;9.620;2024-01-25T02:57:26;23.38;;;4.22;;
61741;SDS011;47650;49.848;9.620;2024-01-25T02:59:51;24.05;;;5.18;;
61741;SDS011;47650;49.848;9.620;2024-01-25T03:02:17;16.90;;;4.00;;
61741;SDS011;47650;49.848;9.620;2024-01-25T03:04:45;23.85;;;5.22;;
61741;SDS011;47650;49.848;9.620;2024-01-25T03:10:02;25.30;;;6.10;;
61741;SDS011;47650;49.848;9.620;2024-01-25T03:12:28;24.67;;;5.65;;
61741;SDS011;47650;49.848;9.620;2024-01-25T03:14:55;22.38;;;4.38;;
61741;SDS011;47650;49.848;9.620;2024-01-25T03:17:20;27.65;;;6.07;;
61741;SDS011;47650;49.848;9.620;2024-01-25T03:19:46;20.92;;;4.25;;
61741;SDS011;47650;49.848;9.620;2024-01-25T03:22:12;24.55;;;5.53;;
61741;SDS011;47650;49.848;9.620;2024-01-25T03:24:38;22.02;;;3.60;;
61741;SDS011;47650;49.848;9.620;2024-01-25T03:27:14;29.45;;;5.30;;
61741;SDS011;47650;49.848;9.620;2024-01-25T03:29:41;23.15;;;4.95;;
61741;SDS011;47650;49.848;9.620;2024-01-25T03:32:09;25.80;;;5.40;;
61741;SDS011;47650;49.848;9.620;2024-01-25T03:34:35;21.15;;;5.10;;
61741;SDS011;47650;49.848;9.620;2024-01-25T03:37:01;23.10;;;4.50;;
61741;SDS011;47650;49.848;9.620;2024-01-25T03:39:27;21.52;;;4.88;;
61741;SDS011;47650;49.848;9.620;2024-01-25T03:41:52;22.48;;;4.40;;
61741;SDS011;47650;49.848;9.620;2024-01-25T03:44:18;22.10;;;4.22;;
61741;SDS011;47650;49.848;9.620;2024-01-25T03:46:45;25.38;;;6.05;;
61741;SDS011;47650;49.848;9.620;2024-01-25T03:49:11;25.80;;;5.28;;
61741;SDS011;47650;49.848;9.620;2024-01-25T03:51:36;26.15;;;5.45;;
61741;SDS011;47650;49.848;9.620;2024-01-25T03:54:09;19.23;;;4.38;;
61741;SDS011;47650;49.848;9.620;2024-01-25T03:56:35;24.25;;;5.25;;
61741;SDS011;47650;49.848;9.620;2024-01-25T03:59:01;20.30;;;5.25;;
61741;SDS011;47650;49.848;9.620;2024-01-25T04:01:28;18.10;;;4.68;;
61741;SDS011;47650;49.848;9.620;2024-01-25T04:04:06;18.98;;;4.38;;
61741;SDS011;47650;49.848;9.620;2024-01-25T04:06:33;19.05;;;4.55;;
61741;SDS011;47650;49.848;9.620;2024-01-25T04:08:58;19.80;;;4.95;;
61741;SDS011;47650;49.848;9.620;2024-01-25T04:11:23;28.58;;;5.72;;
61741;SDS011;47650;49.848;9.620;2024-01-25T04:13:49;19.55;;;4.00;;
61741;SDS011;47650;49.848;9.620;2024-01-25T04:16:14;25.75;;;4.15;;
61741;SDS011;47650;49.848;9.620;2024-01-25T04:18:39;30.73;;;4.50;;
61741;SDS011;47650;49.848;9.620;2024-01-25T04:21:05;24.05;;;5.60;;
61741;SDS011;47650;49.848;9.620;2024-01-25T04:23:30;29.60;;;5.10;;
61741;SDS011;47650;49.848;9.620;2024-01-25T04:25:56;24.13;;;4.65;;
61741;SDS011;47650;49.848;9.620;2024-01-25T04:28:22;30.85;;;5.65;;
61741;SDS011;47650;49.848;9.620;2024-01-25T04:30:47;24.60;;;5.65;;
61741;SDS011;47650;49.848;9.620;2024-01-25T04:33:12;24.75;;;5.03;;
61741;SDS011;47650;49.848;9.620;2024-01-25T04:35:38;23.35;;;5.72;;
61741;SDS011;47650;49.848;9.620;2024-01-25T04:38:03;22.30;;;5.55;;
61741;SDS011;47650;49.848;9.620;2024-01-25T04:40:31;22.13;;;4.75;;
61741;SDS011;47650;49.848;9.620;2024-01-25T04:42:56;25.35;;;5.45;;
61741;SDS011;47650;49.848;9.620;2024-01-25T04:45:27;33.80;;;7.05;;
61741;SDS011;47650;49.848;9.620;2024-01-25T04:47:52;30.23;;;6.43;;
61741;SDS011;47650;49.848;9.620;2024-01-25T04:50:18;25.45;;;5.18;;
61741;SDS011;47650;49.848;9.620;2024-01-25T04:52:45;24.58;;;5.10;;
61741;SDS011;47650;49.848;9.620;2024-01-25T04:55:10;20.73;;;5.53;;
61741;SDS011;47650;49.848;9.620;2024-01-25T04:57:36;26.55;;;5.18;;
61741;SDS011;47650;49.848;9.620;2024-01-25T05:00:02;21.90;;;5.65;;
61741;SDS011;47650;49.848;9.620;2024-01-25T05:02:28;23.73;;;5.95;;
61741;SDS011;47650;49.848;9.620;2024-01-25T05:04:53;26.02;;;5.32;;
61741;SDS011;47650;49.848;9.620;2024-01-25T05:07:18;21.05;;;4.80;;
61741;SDS011;47650;49.848;9.620;2024-01-25T05:09:49;21.10;;;4.85;;
61741;SDS011;47650;49.848;9.620;2024-01-25T05:12:15;22.17;;;4.95;;
61741;SDS011;47650;49.848;9.620;2024-01-25T05:14:40;34.10;;;6.20;;
61741;SDS011;47650;49.848;9.620;2024-01-25T05:17:11;27.85;;;6.15;;
61741;SDS011;47650;49.848;9.620;2024-01-25T05:22:04;35.75;;;6.47;;
61741;SDS011;47650;49.848;9.620;2024-01-25T05:24:32;34.13;;;6.35;;
61741;SDS011;47650;49.848;9.620;2024-01-25T05:26:58;31.25;;;6.22;;
61741;SDS011;47650;49.848;9.620;2024-01-25T05:29:25;32.30;;;5.50;;
61741;SDS011;47650;49.848;9.620;2024-01-25T05:31:50;30.10;;;6.22;;
61741;SDS011;47650;49.848;9.620;2024-01-25T05:34:15;30.63;;;5.93;;
61741;SDS011;47650;49.848;9.620;2024-01-25T05:36:41;29.25;;;6.00;;
61741;SDS011;47650;49.848;9.620;2024-01-25T05:39:07;55.78;;;19.77;;
61741;SDS011;47650;49.848;9.620;2024-01-25T05:41:33;42.83;;;12.65;;
61741;SDS011;47650;49.848;9.620;2024-01-25T05:43:59;25.45;;;5.95;;
61741;SDS011;47650;49.848;9.620;2024-01-25T05:46:24;28.33;;;5.53;;
61741;SDS011;47650;49.848;9.620;2024-01-25T05:48:50;38.38;;;12.05;;
61741;SDS011;47650;49.848;9.620;2024-01-25T05:51:21;32.25;;;7.80;;
61741;SDS011;47650;49.848;9.620;2024-01-25T05:53:48;22.10;;;5.53;;
61741;SDS011;47650;49.848;9.620;2024-01-25T05:56:13;31.45;;;6.63;;
61741;SDS011;47650;49.848;9.620;2024-01-25T05:58:42;28.60;;;5.82;;
61741;SDS011;47650;49.848;9.620;2024-01-25T06:01:09;29.85;;;6.15;;
61741;SDS011;47650;49.848;9.620;2024-01-25T06:03:35;32.97;;;6.30;;
61741;SDS011;47650;49.848;9.620;2024-01-25T06:06:01;25.35;;;5.20;;
61741;SDS011;47650;49.848;9.620;2024-01-25T06:08:27;28.45;;;4.68;;
61741;SDS011;47650;49.848;9.620;2024-01-25T06:10:53;31.33;;;5.45;;
61741;SDS011;47650;49.848;9.620;2024-01-25T06:13:19;25.25;;;6.40;;
61741;SDS011;47650;49.848;9.620;2024-01-25T06:15:44;32.22;;;6.45;;
61741;SDS011;47650;49.848;9.620;2024-01-25T06:18:09;31.92;;;6.35;;
61741;SDS011;47650;49.848;9.620;2024-01-25T06:20:44;25.52;;;5.50;;
61741;SDS011;47650;49.848;9.620;2024-01-25T06:23:09;27.73;;;7.03;;
61741;SDS011;47650;49.848;9.620;2024-01-25T06:25:34;30.23;;;6.18;;
61741;SDS011;47650;49.848;9.620;2024-01-25T06:28:01;42.53;;;6.93;;
61741;SDS011;47650;49.848;9.620;2024-01-25T06:30:27;30.83;;;6.45;;
61741;SDS011;47650;49.848;9.620;2024-01-25T06:32:53;30.33;;;6.60;;
61741;SDS011;47650;49.848;9.620;2024-01-25T06:35:18;31.17;;;6.60;;
61741;SDS011;47650;49.848;9.620;2024-01-25T06:37:43;30.35;;;6.50;;
61741;SDS011;47650;49.848;9.620;2024-01-25T06:40:09;34.08;;;6.10;;
61741;SDS011;47650;49.848;9.620;2024-01-25T06:45:02;24.95;;;5.82;;
61741;SDS011;47650;49.848;9.620;2024-01-25T06:47:27;26.40;;;6.60;;
61741;SDS011;47650;49.848;9.620;2024-01-25T06:49:54;28.42;;;5.28;;
61741;SDS011;47650;49.848;9.620;2024-01-25T06:52:19;31.73;;;6.28;;
61741;SDS011;47650;49.848;9.620;2024-01-25T06:54:45;32.08;;;7.30;;
61741;SDS011;47650;49.848;9.620;2024-01-25T06:57:11;27.00;;;6.13;;
61741;SDS011;47650;49.848;9.620;2024-01-25T06:59:39;37.08;;;6.20;;
61741;SDS011;47650;49.848;9.620;2024-01-25T07:02:04;36.85;;;10.27;;
61741;SDS011;47650;49.848;9.620;2024-01-25T07:04:29;60.78;;;20.75;;
61741;SDS011;47650;49.848;9.620;2024-01-25T07:06:56;40.45;;;11.73;;
61741;SDS011;47650;49.848;9.620;2024-01-25T07:09:21;60.80;;;20.90;;
61741;SDS011;47650;49.848;9.620;2024-01-25T07:11:47;46.35;;;9.63;;
61741;SDS011;47650;49.848;9.620;2024-01-25T07:14:13;41.03;;;9.65;;
61741;SDS011;47650;49.848;9.620;2024-01-25T07:16:39;35.33;;;6.13;;
61741;SDS011;47650;49.848;9.620;2024-01-25T07:19:04;28.65;;;6.53;;
61741;SDS011;47650;49.848;9.620;2024-01-25T07:21:30;37.33;;;6.80;;
61741;SDS011;47650;49.848;9.620;2024-01-25T07:24:01;34.67;;;7.97;;
61741;SDS011;47650;49.848;9.620;2024-01-25T07:26:29;33.72;;;7.20;;
61741;SDS011;47650;49.848;9.620;2024-01-25T07:28:55;36.42;;;6.82;;
61741;SDS011;47650;49.848;9.620;2024-01-25T07:31:24;35.22;;;6.97;;
61741;SDS011;47650;49.848;9.620;2024-01-25T07:33:58;29.23;;;6.65;;
61741;SDS011;47650;49.848;9.620;2024-01-25T07:36:23;27.92;;;6.05;;
61741;SDS011;47650;49.848;9.620;2024-01-25T07:38:50;27.88;;;7.07;;
61741;SDS011;47650;49.848;9.620;2024-01-25T07:41:15;33.72;;;8.43;;
61741;SDS011;47650;49.848;9.620;2024-01-25T07:43:41;36.00;;;8.10;;
61741;SDS011;47650;49.848;9.620;2024-01-25T07:46:08;27.45;;;6.40;;
61741;SDS011;47650;49.848;9.620;2024-01-25T07:48:43;37.22;;;7.85;;
61741;SDS011;47650;49.848;9.620;2024-01-25T07:51:14;26.08;;;7.70;;
61741;SDS011;47650;49.848;9.620;2024-01-25T07:53:39;29.70;;;7.68;;
61741;SDS011;47650;49.848;9.620;2024-01-25T07:56:06;29.73;;;7.25;;
61741;SDS011;47650;49.848;9.620;2024-01-25T07:58:33;30.52;;;5.65;;
61741;SDS011;47650;49.848;9.620;2024-01-25T08:00:59;35.88;;;8.98;;
61741;SDS011;47650;49.848;9.620;2024-01-25T08:03:31;28.33;;;6.40;;
61741;SDS011;47650;49.848;9.620;2024-01-25T08:05:57;33.63;;;7.68;;
61741;SDS011;47650;49.848;9.620;2024-01-25T08:08:24;30.63;;;6.97;;
61741;SDS011;47650;49.848;9.620;2024-01-25T08:10:50;31.27;;;6.80;;
61741;SDS011;47650;49.848;9.620;2024-01-25T08:13:16;30.67;;;6.82;;
61741;SDS011;47650;49.848;9.620;2024-01-25T08:15:41;29.63;;;6.63;;
61741;SDS011;47650;49.848;9.620;2024-01-25T08:18:10;28.33;;;6.55;;
61741;SDS011;47650;49.848;9.620;2024-01-25T08:20:38;24.83;;;5.55;;
61741;SDS011;47650;49.848;9.620;2024-01-25T08:23:04;31.55;;;6.32;;
61741;SDS011;47650;49.848;9.620;2024-01-25T08:25:29;33.28;;;6.25;;
61741;SDS011;47650;49.848;9.620;2024-01-25T08:27:54;28.17;;;6.35;;
61741;SDS011;47650;49.848;9.620;2024-01-25T08:30:22;32.38;;;6.30;;
61741;SDS011;47650;49.848;9.620;2024-01-25T08:32:58;25.10;;;5.70;;
61741;SDS011;47650;49.848;9.620;2024-01-25T08:35:23;22.05;;;6.47;;
61741;SDS011;47650;49.848;9.620;2024-01-25T08:37:51;28.38;;;6.50;;
61741;SDS011;47650;49.848;9.620;2024-01-25T08:40:16;22.25;;;8.63;;
61741;SDS011;47650;49.848;9.620;2024-01-25T08:42:42;32.22;;;12.77;;
61741;SDS011;47650;49.848;9.620;2024-01-25T08:45:08;28.45;;;8.38;;
61741;SDS011;47650;49.848;9.620;2024-01-25T08:47:37;26.55;;;8.18;;
61741;SDS011;47650;49.848;9.620;2024-01-25T08:50:02;23.95;;;6.40;;
61741;SDS011;47650;49.848;9.620;2024-01-25T08:52:28;24.27;;;7.70;;
61741;SDS011;47650;49.848;9.620;2024-01-25T08:54:54;25.08;;;7.93;;
61741;SDS011;47650;49.848;9.620;2024-01-25T08:57:19;26.08;;;7.65;;
61741;SDS011;47650;49.848;9.620;2024-01-25T08:59:45;24.77;;;7.78;;
61741;SDS011;47650;49.848;9.620;2024-01-25T09:02:10;22.58;;;6.15;;
61741;SDS011;47650;49.848;9.620;2024-01-25T09:04:36;23.45;;;7.75;;
61741;SDS011;47650;49.848;9.620;2024-01-25T09:07:02;22.83;;;7.35;;
61741;SDS011;47650;49.848;9.620;2024-01-25T09:09:27;20.85;;;6.80;;
61741;SDS011;47650;49.848;9.620;2024-01-25T09:11:53;24.13;;;6.55;;
61741;SDS011;47650;49.848;9.620;2024-01-25T09:14:19;24.60;;;6.78;;
61741;SDS011;47650;49.848;9.620;2024-01-25T09:16:46;26.80;;;6.40;;
61741;SDS011;47650;49.848;9.620;2024-01-25T09:19:12;22.38;;;7.22;;
61741;SDS011;47650;49.848;9.620;2024-01-25T09:21:40;24.17;;;7.55;;
61741;SDS011;47650;49.848;9.620;2024-01-25T09:24:08;23.20;;;6.65;;
61741;SDS011;47650;49.848;9.620;2024-01-25T09:26:33;22.15;;;6.20;;
61741;SDS011;47650;49.848;9.620;2024-01-25T09:28:58;24.90;;;6.65;;
61741;SDS011;47650;49.848;9.620;2024-01-25T09:31:26;22.08;;;6.80;;
61741;SDS011;47650;49.848;9.620;2024-01-25T09:33:54;21.50;;;5.70;;
61741;SDS011;47650;49.848;9.620;2024-01-25T09:36:20;27.98;;;7.22;;
61741;SDS011;47650;49.848;9.620;2024-01-25T09:38:45;20.95;;;6.32;;
61741;SDS011;47650;49.848;9.620;2024-01-25T09:41:10;26.13;;;7.13;;
61741;SDS011;47650;49.848;9.620;2024-01-25T09:43:36;25.17;;;7.65;;
61741;SDS011;47650;49.848;9.620;2024-01-25T09:46:08;25.63;;;5.97;;
61741;SDS011;47650;49.848;9.620;2024-01-25T09:48:41;25.23;;;6.55;;
61741;SDS011;47650;49.848;9.620;2024-01-25T09:51:09;26.02;;;6.05;;
61741;SDS011;47650;49.848;9.620;2024-01-25T09:53:36;22.38;;;6.43;;
61741;SDS011;47650;49.848;9.620;2024-01-25T09:56:05;30.08;;;6.28;;
61741;SDS011;47650;49.848;9.620;2024-01-25T09:58:45;25.58;;;6.72;;
61741;SDS011;47650;49.848;9.620;2024-01-25T10:01:13;33.00;;;7.28;;
61741;SDS011;47650;49.848;9.620;2024-01-25T10:03:43;25.55;;;6.65;;
61741;SDS011;47650;49.848;9.620;2024-01-25T10:06:12;22.17;;;5.20;;
61741;SDS011;47650;49.848;9.620;2024-01-25T10:08:38;19.13;;;6.00;;
61741;SDS011;47650;49.848;9.620;2024-01-25T10:11:04;30.83;;;6.22;;
61741;SDS011;47650;49.848;9.620;2024-01-25T10:13:30;24.38;;;5.85;;
61741;SDS011;47650;49.848;9.620;2024-01-25T10:15:55;22.38;;;6.13;;
61741;SDS011;47650;49.848;9.620;2024-01-25T10:18:28;22.77;;;6.65;;
61741;SDS011;47650;49.848;9.620;2024-01-25T10:20:53;20.25;;;5.78;;
61741;SDS011;47650;49.848;9.620;2024-01-25T10:23:22;19.05;;;5.70;;
61741;SDS011;47650;49.848;9.620;2024-01-25T10:25:48;22.17;;;5.57;;
61741;SDS011;47650;49.848;9.620;2024-01-25T10:28:13;23.25;;;6.50;;
61741;SDS011;47650;49.848;9.620;2024-01-25T10:30:39;21.65;;;5.38;;
61741;SDS011;47650;49.848;9.620;2024-01-25T10:33:04;21.98;;;7.13;;
61741;SDS011;47650;49.848;9.620;2024-01-25T10:35:32;26.13;;;6.55;;
61741;SDS011;47650;49.848;9.620;2024-01-25T10:37:57;21.38;;;5.28;;
61741;SDS011;47650;49.848;9.620;2024-01-25T10:40:23;22.98;;;5.68;;
61741;SDS011;47650;49.848;9.620;2024-01-25T10:42:49;20.02;;;5.25;;
61741;SDS011;47650;49.848;9.620;2024-01-25T10:45:15;26.58;;;6.47;;
61741;SDS011;47650;49.848;9.620;2024-01-25T10:47:40;23.40;;;6.00;;
61741;SDS011;47650;49.848;9.620;2024-01-25T10:50:13;20.80;;;5.28;;
61741;SDS011;47650;49.848;9.620;2024-01-25T10:52:39;21.13;;;5.00;;
61741;SDS011;47650;49.848;9.620;2024-01-25T10:55:06;23.58;;;5.40;;
61741;SDS011;47650;49.848;9.620;2024-01-25T10:57:34;24.65;;;6.13;;
61741;SDS011;47650;49.848;9.620;2024-01-25T11:00:02;23.15;;;6.13;;
61741;SDS011;47650;49.848;9.620;2024-01-25T11:02:29;20.60;;;4.75;;
61741;SDS011;47650;49.848;9.620;2024-01-25T11:04:55;21.02;;;5.20;;
61741;SDS011;47650;49.848;9.620;2024-01-25T11:07:20;18.48;;;4.80;;
61741;SDS011;47650;49.848;9.620;2024-01-25T11:09:50;18.08;;;4.97;;
61741;SDS011;47650;49.848;9.620;2024-01-25T11:12:17;19.73;;;4.90;;
61741;SDS011;47650;49.848;9.620;2024-01-25T11:14:43;20.33;;;5.30;;
61741;SDS011;47650;49.848;9.620;2024-01-25T11:17:22;13.60;;;4.15;;
61741;SDS011;47650;49.848;9.620;2024-01-25T11:19:49;23.98;;;5.53;;
61741;SDS011;47650;49.848;9.620;2024-01-25T11:22:15;17.25;;;5.78;;
61741;SDS011;47650;49.848;9.620;2024-01-25T11:24:41;17.02;;;4.97;;
61741;SDS011;47650;49.848;9.620;2024-01-25T11:27:08;18.75;;;4.60;;
61741;SDS011;47650;49.848;9.620;2024-01-25T11:29:36;24.33;;;5.40;;
61741;SDS011;47650;49.848;9.620;2024-01-25T11:32:04;20.75;;;5.57;;
61741;SDS011;47650;49.848;9.620;2024-01-25T11:34:30;19.60;;;5.47;;
61741;SDS011;47650;49.848;9.620;2024-01-25T11:36:56;17.67;;;4.60;;
61741;SDS011;47650;49.848;9.620;2024-01-25T11:39:23;14.02;;;3.35;;
61741;SDS011;47650;49.848;9.620;2024-01-25T11:41:50;20.10;;;4.97;;
61741;SDS011;47650;49.848;9.620;2024-01-25T11:44:17;24.90;;;6.85;;
61741;SDS011;47650;49.848;9.620;2024-01-25T11:46:42;16.05;;;4.50;;
61741;SDS011;47650;49.848;9.620;2024-01-25T11:49:08;24.25;;;5.80;;
61741;SDS011;47650;49.848;9.620;2024-01-25T11:51:33;19.38;;;5.20;;
61741;SDS011;47650;49.848;9.620;2024-01-25T11:53:59;17.00;;;4.20;;
61741;SDS011;47650;49.848;9.620;2024-01-25T11:59:00;19.35;;;4.47;;
61741;SDS011;47650;49.848;9.620;2024-01-25T12:01:26;19.35;;;5.53;;
61741;SDS011;47650;49.848;9.620;2024-01-25T12:03:53;17.20;;;3.72;;
61741;SDS011;47650;49.848;9.620;2024-01-25T12:06:19;21.13;;;6.07;;
61741;SDS011;47650;49.848;9.620;2024-01-25T12:08:44;18.77;;;5.05;;
61741;SDS011;47650;49.848;9.620;2024-01-25T12:11:13;16.20;;;5.10;;
61741;SDS011;47650;49.848;9.620;2024-01-25T12:13:40;17.85;;;5.70;;
61741;SDS011;47650;49.848;9.620;2024-01-25T12:16:08;22.13;;;5.38;;
61741;SDS011;47650;49.848;9.620;2024-01-25T12:18:34;22.45;;;6.13;;
61741;SDS011;47650;49.848;9.620;2024-01-25T12:21:03;18.42;;;5.00;;
61741;SDS011;47650;49.848;9.620;2024-01-25T12:23:32;22.67;;;4.97;;
61741;SDS011;47650;49.848;9.620;2024-01-25T12:26:01;19.52;;;4.88;;
61741;SDS011;47650;49.848;9.620;2024-01-25T12:28:29;17.65;;;4.50;;
61741;SDS011;47650;49.848;9.620;2024-01-25T12:30:57;24.30;;;5.03;;
61741;SDS011;47650;49.848;9.620;2024-01-25T12:33:23;23.50;;;6.03;;
61741;SDS011;47650;49.848;9.620;2024-01-25T12:35:49;26.55;;;5.65;;
61741;SDS011;47650;49.848;9.620;2024-01-25T12:38:15;20.17;;;5.20;;
61741;SDS011;47650;49.848;9.620;2024-01-25T12:40:41;20.45;;;4.47;;
61741;SDS011;47650;49.848;9.620;2024-01-25T12:43:08;20.35;;;4.45;;
61741;SDS011;47650;49.848;9.620;2024-01-25T12:45:34;20.48;;;5.80;;
61741;SDS011;47650;49.848;9.620;2024-01-25T12:47:59;21.70;;;5.30;;
61741;SDS011;47650;49.848;9.620;2024-01-25T12:50:24;14.77;;;4.00;;
61741;SDS011;47650;49.848;9.620;2024-01-25T12:52:49;19.35;;;5.43;;
61741;SDS011;47650;49.848;9.620;2024-01-25T12:55:15;20.38;;;4.75;;
61741;SDS011;47650;49.848;9.620;2024-01-25T12:57:42;19.38;;;4.60;;
61741;SDS011;47650;49.848;9.620;2024-01-25T13:00:07;19.02;;;4.78;;
61741;SDS011;47650;49.848;9.620;2024-01-25T13:02:33;15.50;;;4.10;;
61741;SDS011;47650;49.848;9.620;2024-01-25T13:04:59;16.70;;;5.35;;
61741;SDS011;47650;49.848;9.620;2024-01-25T13:07:25;20.60;;;4.60;;
61741;SDS011;47650;49.848;9.620;2024-01-25T13:09:56;13.70;;;3.78;;
61741;SDS011;47650;49.848;9.620;2024-01-25T13:12:21;19.33;;;5.65;;
61741;SDS011;47650;49.848;9.620;2024-01-25T13:14:47;22.02;;;5.75;;
61741;SDS011;47650;49.848;9.620;2024-01-25T13:17:12;20.33;;;4.60;;
61741;SDS011;47650;49.848;9.620;2024-01-25T13:19:37;22.10;;;4.65;;
61741;SDS011;47650;49.848;9.620;2024-01-25T13:22:03;22.70;;;4.90;;
61741;SDS011;47650;49.848;9.620;2024-01-25T13:24:29;25.35;;;4.90;;
61741;SDS011;47650;49.848;9.620;2024-01-25T13:26:54;20.05;;;4.95;;
61741;SDS011;47650;49.848;9.620;2024-01-25T13:29:21;21.23;;;4.60;;
61741;SDS011;47650;49.848;9.620;2024-01-25T13:31:47;19.38;;;5.40;;
61741;SDS011;47650;49.848;9.620;2024-01-25T13:34:12;20.25;;;5.55;;
61741;SDS011;47650;49.848;9.620;2024-01-25T13:36:38;24.27;;;5.88;;
61741;SDS011;47650;49.848;9.620;2024-01-25T13:39:10;24.30;;;5.75;;
61741;SDS011;47650;49.848;9.620;2024-01-25T13:41:36;22.83;;;5.75;;
61741;SDS011;47650;49.848;9.620;2024-01-25T13:44:02;30.25;;;5.97;;
61741;SDS011;47650;49.848;9.620;2024-01-25T13:46:27;23.00;;;6.05;;
61741;SDS011;47650;49.848;9.620;2024-01-25T13:48:52;20.48;;;5.90;;
61741;SDS011;47650;49.848;9.620;2024-01-25T13:51:19;22.15;;;6.05;;
61741;SDS011;47650;49.848;9.620;2024-01-25T13:53:44;19.23;;;5.35;;
61741;SDS011;47650;49.848;9.620;2024-01-25T13:56:09;29.50;;;5.30;;
61741;SDS011;47650;49.848;9.620;2024-01-25T13:58:35;23.95;;;6.22;;
61741;SDS011;47650;49.848;9.620;2024-01-25T14:01:01;22.58;;;5.30;;
61741;SDS011;47650;49.848;9.620;2024-01-25T14:05:56;17.23;;;5.13;;
61741;SDS011;47650;49.848;9.620;2024-01-25T14:08:30;22.55;;;5.93;;
61741;SDS011;47650;49.848;9.620;2024-01-25T14:10:56;20.58;;;4.80;;
61741;SDS011;47650;49.848;9.620;2024-01-25T14:13:22;28.33;;;6.22;;
61741;SDS011;47650;49.848;9.620;2024-01-25T14:15:49;24.70;;;6.00;;
61741;SDS011;47650;49.848;9.620;2024-01-25T14:18:15;22.77;;;5.93;;
61741;SDS011;47650;49.848;9.620;2024-01-25T14:20:40;23.58;;;4.82;;
61741;SDS011;47650;49.848;9.620;2024-01-25T14:23:08;25.38;;;6.70;;
61741;SDS011;47650;49.848;9.620;2024-01-25T14:26:03;23.65;;;5.95;;
61741;SDS011;47650;49.848;9.620;2024-01-25T14:28:29;24.77;;;6.53;;
61741;SDS011;47650;49.848;9.620;2024-01-25T14:30:55;27.38;;;6.65;;
61741;SDS011;47650;49.848;9.620;2024-01-25T14:33:21;21.50;;;5.60;;
61741;SDS011;47650;49.848;9.620;2024-01-25T14:35:48;23.65;;;5.28;;
61741;SDS011;47650;49.848;9.620;2024-01-25T14:38:15;18.90;;;5.20;;
61741;SDS011;47650;49.848;9.620;2024-01-25T14:40:40;22.75;;;5.45;;
61741;SDS011;47650;49.848;9.620;2024-01-25T14:43:08;23.65;;;6.25;;
61741;SDS011;47650;49.848;9.620;2024-01-25T14:45:33;22.27;;;5.72;;